Time;durP1;ratioP1;P1;durP2;ratioP2;P2;SDS_P1;SDS_P2;PMS_P1;PMS_P2;Temp;Humidity;BMP_temperature;BMP_pressure;BME280_temperature;BME280_humidity;BME280_pressure;Samples;Min_cycle;Max_cycle;Signal;HPM_P1;HPM_P2
2022/09/10 00:01:52;;;;;;;;;;;;;;;4.70;66.81;101141.59;5052606;28;19928;-77
2022/09/10 00:04:19;;;;;;;;;;;;;;;4.69;66.96;101147.59;5052890;28;19925;-81
2022/09/10 00:06:45;;;;;;;;;;;;;;;4.68;66.79;101144.94;5051662;28;19928;-77
2022/09/10 00:09:12;;;;;;;;;;;;;;;4.67;66.26;101146.66;5052807;28;19932;-80
2022/09/10 00:11:41;;;;;;;;;;;;;;;4.65;66.62;101140.50;5059741;28;19925;-79
2022/09/10 00:14:12;;;;;;;;;;;;;;;4.64;67.05;101149.06;5052907;28;19930;-79
2022/09/10 00:16:39;;;;;;;;;;;;;;;4.62;67.00;101142.06;5053148;28;19970;-77
2022/09/10 00:19:06;;;;;;;;;;;;;;;4.59;66.68;101147.97;5056504;28;19932;-80
2022/09/10 00:21:34;;;;;;;;;;;;;;;4.58;66.77;101147.91;5056053;28;19978;-78
2022/09/10 00:24:02;;;;;;;;;;;;;;;4.57;66.74;101146.13;5057025;28;19924;-78
2022/09/10 00:26:30;;;;;;;;;;;;;;;4.53;66.69;101152.84;5056493;28;19967;-78
2022/09/10 00:28:58;;;;;;;;;;;;;;;4.50;67.18;101158.78;5057029;28;20376;-76
2022/09/10 00:31:26;;;;;;;;;;;;;;;4.49;66.91;101156.97;5055890;28;19925;-80
2022/09/10 00:33:53;;;;;;;;;;;;;;;4.47;67.39;101156.06;5038172;28;20308;-77
2022/09/10 00:36:24;;;;;;;;;;;;;;;4.47;67.21;101152.56;5055736;28;19925;-80
2022/09/10 00:38:53;;;;;;;;;;;;;;;4.45;66.74;101152.50;5055901;28;19994;-77
2022/09/10 00:41:21;;;;;;;;;;;;;;;4.45;67.11;101149.91;5055717;28;19924;-79
2022/09/10 00:43:59;;;;;;;;;;;;;;;4.43;66.98;101151.53;5055854;28;19928;-81
2022/09/10 00:46:31;;;;;;;;;;;;;;;4.43;66.77;101148.03;5055631;28;19963;-80
2022/09/10 00:49:01;;;;;;;;;;;;;;;4.40;67.02;101156.53;5055521;28;19925;-80
2022/09/10 00:51:32;;;;;;;;;;;;;;;4.38;67.03;101158.16;5037641;28;19964;-80
2022/09/10 00:53:59;;;;;;;;;;;;;;;4.35;67.18;101160.63;5037930;28;19924;-78
2022/09/10 00:56:28;;;;;;;;;;;;;;;4.33;67.06;101166.53;5055392;28;20444;-79
2022/09/10 00:58:56;;;;;;;;;;;;;;;4.29;67.24;101166.38;5054380;28;19925;-81
2022/09/10 01:01:22;;;;;;;;;;;;;;;4.25;67.35;101161.84;5054455;28;20029;-80
2022/09/10 01:03:49;;;;;;;;;;;;;;;4.23;67.75;101171.22;5055538;28;19925;-78
2022/09/10 01:06:17;;;;;;;;;;;;;;;4.21;67.40;101161.63;5037422;28;19932;-75
2022/09/10 01:08:44;;;;;;;;;;;;;;;4.19;67.23;101169.28;5055251;28;19970;-77
2022/09/10 01:11:11;;;;;;;;;;;;;;;4.16;67.67;101174.34;5055204;28;20015;-77
2022/09/10 01:13:54;;;;;;;;;;;;;;;4.13;66.87;101171.59;5053894;28;19928;-77
2022/09/10 01:16:30;;;;;;;;;;;;;;;4.13;67.38;101173.28;5055552;28;19929;-77
2022/09/10 01:19:09;;;;;;;;;;;;;;;4.10;67.58;101177.47;5054361;28;20402;-77
2022/09/10 01:21:45;;;;;;;;;;;;;;;4.07;67.54;101169.59;5073098;28;19967;-77
2022/09/10 01:24:18;;;;;;;;;;;;;;;4.05;67.85;101170.31;5076457;28;19951;-78
2022/09/10 01:26:54;;;;;;;;;;;;;;;4.04;67.35;101172.03;5071872;28;19925;-77
2022/09/10 01:29:28;;;;;;;;;;;;;;;4.04;67.71;101171.13;5053611;28;20019;-76
2022/09/10 01:32:01;;;;;;;;;;;;;;;4.02;67.67;101171.06;5070177;28;20375;-78
2022/09/10 01:34:31;;;;;;;;;;;;;;;4.01;67.77;101179.63;5070544;28;19925;-76
2022/09/10 01:37:06;;;;;;;;;;;;;;;3.98;67.83;101179.47;5054338;28;19960;-78
2022/09/10 01:39:36;;;;;;;;;;;;;;;3.96;67.73;101180.19;5053600;28;20371;-78
2022/09/10 01:42:03;;;;;;;;;;;;;;;3.93;67.57;101177.44;5037387;28;20438;-77
2022/09/10 01:44:47;;;;;;;;;;;;;;;3.90;67.60;101175.59;5036514;28;20434;-78
2022/09/10 01:47:40;;;;;;;;;;;;;;;3.89;67.63;101179.91;5053121;28;19925;-77
2022/09/10 01:50:23;;;;;;;;;;;;;;;3.87;67.49;101173.75;5053478;28;19924;-77
2022/09/10 01:52:50;;;;;;;;;;;;;;;3.85;67.96;101172.78;5036569;28;19947;-78
2022/09/10 01:55:32;;;;;;;;;;;;;;;3.84;67.50;101175.28;5054455;28;20423;-78
2022/09/10 01:58:20;;;;;;;;;;;;;;;3.81;67.36;101178.59;5054556;28;19924;-78
2022/09/10 02:01:06;;;;;;;;;;;;;;;3.83;67.52;101179.56;5035447;28;20334;-76
2022/09/10 02:03:35;;;;;;;;;;;;;;;3.83;67.65;101181.25;5053903;28;19936;-78
2022/09/10 02:06:03;;;;;;;;;;;;;;;3.80;67.50;101176.81;5053991;28;19924;-76
2022/09/10 02:08:36;;;;;;;;;;;;;;;3.79;68.07;101179.34;5035073;28;19974;-76
2022/09/10 02:11:08;;;;;;;;;;;;;;;3.77;67.82;101180.97;5036841;28;19956;-78
2022/09/10 02:13:38;;;;;;;;;;;;;;;3.74;67.63;101180.78;5036036;28;19929;-77
2022/09/10 02:16:21;;;;;;;;;;;;;;;3.71;67.83;101181.50;5053801;28;19925;-78
2022/09/10 02:18:49;;;;;;;;;;;;;;;3.70;67.84;101187.50;5036314;28;20376;-77
2022/09/10 02:21:16;;;;;;;;;;;;;;;3.69;68.11;101176.25;5053749;28;20023;-77
2022/09/10 02:23:44;;;;;;;;;;;;;;;3.67;67.89;101184.75;5054100;28;19955;-77
2022/09/10 02:26:15;;;;;;;;;;;;;;;3.67;68.08;101177.00;5054158;28;19929;-78
2022/09/10 02:28:43;;;;;;;;;;;;;;;3.67;67.96;101177.00;5058906;28;19935;-78
2022/09/10 02:31:11;;;;;;;;;;;;;;;3.67;67.75;101183.03;5049510;28;19925;-78
2022/09/10 02:33:38;;;;;;;;;;;;;;;3.66;67.88;101176.13;5066728;28;20308;-77
2022/09/10 02:36:08;;;;;;;;;;;;;;;3.65;67.71;101178.59;5062949;28;20365;-78
2022/09/10 02:38:35;;;;;;;;;;;;;;;3.65;68.22;101169.16;5035261;28;19928;-77
2022/09/10 02:41:01;;;;;;;;;;;;;;;3.65;67.90;101176.91;5018410;28;19931;-78
2022/09/10 02:43:29;;;;;;;;;;;;;;;3.64;68.08;101175.16;5035370;28;20404;-78
2022/09/10 02:46:01;;;;;;;;;;;;;;;3.65;67.69;101178.59;5035466;28;19924;-79
2022/09/10 02:48:29;;;;;;;;;;;;;;;3.63;67.78;101175.94;5035157;28;19929;-77
2022/09/10 02:50:57;;;;;;;;;;;;;;;3.62;67.87;101173.28;5053196;28;19928;-76
2022/09/10 02:53:26;;;;;;;;;;;;;;;3.60;67.78;101177.50;5035209;28;19924;-78
2022/09/10 02:55:56;;;;;;;;;;;;;;;3.60;67.46;101174.91;5035242;28;19924;-77
2022/09/10 02:58:23;;;;;;;;;;;;;;;3.61;67.49;101174.09;5035006;28;20298;-76
2022/09/10 03:00:52;;;;;;;;;;;;;;;3.61;67.43;101172.38;5035034;28;19925;-77
2022/09/10 03:03:19;;;;;;;;;;;;;;;3.65;67.73;101176.03;5051821;28;19974;-76
2022/09/10 03:05:46;;;;;;;;;;;;;;;3.69;67.27;101172.78;5034701;28;20019;-78
2022/09/10 03:08:13;;;;;;;;;;;;;;;3.72;67.13;101175.53;5034908;28;19983;-77
2022/09/10 03:10:44;;;;;;;;;;;;;;;3.76;67.51;101182.63;5051708;28;19935;-77
2022/09/10 03:13:11;;;;;;;;;;;;;;;3.80;67.17;101173.34;5053251;28;19931;-77
2022/09/10 03:15:38;;;;;;;;;;;;;;;3.87;67.08;101180.59;5043234;28;19930;-77
2022/09/10 03:18:05;;;;;;;;;;;;;;;3.94;66.78;101174.06;5054260;28;20320;-77
2022/09/10 03:20:35;;;;;;;;;;;;;;;4.02;66.85;101184.00;5051273;28;20230;-77
2022/09/10 03:23:04;;;;;;;;;;;;;;;4.10;66.22;101180.06;5052699;28;20324;-76
2022/09/10 03:25:31;;;;;;;;;;;;;;;4.20;66.28;101175.38;5033952;28;19929;-77
2022/09/10 03:27:58;;;;;;;;;;;;;;;4.28;66.13;101172.38;5052514;28;19931;-76
2022/09/10 03:30:26;;;;;;;;;;;;;;;4.37;65.98;101173.63;5034823;28;20377;-77
2022/09/10 03:32:53;;;;;;;;;;;;;;;4.44;65.33;101173.13;5051497;28;19935;-76
2022/09/10 03:35:21;;;;;;;;;;;;;;;4.52;65.67;101169.22;5018670;28;19947;-76
2022/09/10 03:37:48;;;;;;;;;;;;;;;4.61;64.97;101172.22;5052487;28;19924;-78
2022/09/10 03:40:15;;;;;;;;;;;;;;;4.74;65.30;101180.59;5034777;28;19960;-75
2022/09/10 03:42:42;;;;;;;;;;;;;;;4.85;65.06;101175.09;5052423;28;19924;-76
2022/09/10 03:45:10;;;;;;;;;;;;;;;4.96;64.99;101174.72;5034787;28;19931;-77
2022/09/10 03:47:38;;;;;;;;;;;;;;;5.08;64.90;101171.00;5052342;28;19940;-77
2022/09/10 03:50:06;;;;;;;;;;;;;;;5.25;64.63;101171.78;5034653;28;19925;-76
2022/09/10 03:52:34;;;;;;;;;;;;;;;5.42;64.30;101169.97;5022209;28;19925;-77
2022/09/10 03:55:01;;;;;;;;;;;;;;;5.61;63.90;101178.53;5038379;28;19925;-76
2022/09/10 03:57:29;;;;;;;;;;;;;;;5.83;63.42;101178.69;5043624;28;19924;-76
2022/09/10 03:59:57;;;;;;;;;;;;;;;6.06;63.28;101177.09;5028504;28;19958;-76
2022/09/10 04:02:24;;;;;;;;;;;;;;;6.32;62.76;101175.63;5027049;28;20393;-77
2022/09/10 04:04:51;;;;;;;;;;;;;;;6.57;62.19;101177.47;5036662;28;19925;-79
2022/09/10 04:07:30;;;;;;;;;;;;;;;6.79;62.04;101173.16;5041595;28;19925;-79
2022/09/10 04:09:57;;;;;;;;;;;;;;;6.98;61.76;101173.03;5049090;28;20372;-76
2022/09/10 04:12:25;;;;;;;;;;;;;;;7.23;61.47;101173.09;5030707;28;19970;-77
2022/09/10 04:14:53;;;;;;;;;;;;;;;7.46;61.03;101169.63;5056047;28;19956;-77
2022/09/10 04:17:20;;;;;;;;;;;;;;;7.70;60.82;101171.34;5047126;28;19956;-77
2022/09/10 04:19:48;;;;;;;;;;;;;;;7.90;60.23;101177.28;5043070;28;19971;-78
2022/09/10 04:22:16;;;;;;;;;;;;;;;8.04;60.15;101164.75;5071470;28;20030;-77
2022/09/10 04:24:43;;;;;;;;;;;;;;;8.20;59.52;101167.91;5054551;28;20041;-76
2022/09/10 04:27:10;;;;;;;;;;;;;;;8.37;59.70;101168.50;5055719;28;19970;-77
2022/09/10 04:29:37;;;;;;;;;;;;;;;8.49;59.58;101162.81;5055431;28;19925;-79
2022/09/10 04:32:04;;;;;;;;;;;;;;;8.64;59.27;101165.03;5054514;28;20427;-78
2022/09/10 04:34:32;;;;;;;;;;;;;;;8.83;59.33;101169.09;5054366;28;19928;-76
2022/09/10 04:36:59;;;;;;;;;;;;;;;9.03;58.81;101164.50;5055744;28;19959;-78
2022/09/10 04:39:26;;;;;;;;;;;;;;;9.26;57.99;101164.31;5021077;28;19924;-78
2022/09/10 04:41:53;;;;;;;;;;;;;;;9.46;58.29;101172.72;5054088;28;20545;-77
2022/09/10 04:44:20;;;;;;;;;;;;;;;9.57;58.02;101169.59;5054313;28;20427;-77
2022/09/10 04:46:47;;;;;;;;;;;;;;;9.67;57.86;101177.66;5048225;28;19925;-78
2022/09/10 04:49:13;;;;;;;;;;;;;;;9.73;57.59;101170.88;5035683;28;19929;-77
2022/09/10 04:51:41;;;;;;;;;;;;;;;9.83;57.20;101179.88;5038826;28;20355;-77
2022/09/10 04:54:12;;;;;;;;;;;;;;;9.97;57.78;101188.06;5027891;28;20019;-78
2022/09/10 04:56:39;;;;;;;;;;;;;;;10.12;56.81;101175.41;5025799;28;19925;-78
2022/09/10 04:59:06;;;;;;;;;;;;;;;10.26;57.05;101178.41;5043862;28;20043;-78
2022/09/10 05:01:35;;;;;;;;;;;;;;;10.39;57.09;101180.50;5037586;28;20404;-78
2022/09/10 05:04:03;;;;;;;;;;;;;;;10.56;56.60;101175.69;5016982;28;20312;-76
2022/09/10 05:06:31;;;;;;;;;;;;;;;10.69;56.71;101173.34;5049574;28;20004;-78
2022/09/10 05:08:58;;;;;;;;;;;;;;;10.83;56.91;101171.94;5061535;28;19924;-77
2022/09/10 05:11:25;;;;;;;;;;;;;;;10.97;56.84;101169.63;5043186;28;20012;-78
2022/09/10 05:13:52;;;;;;;;;;;;;;;11.13;56.58;101169.16;5039471;28;19949;-77
2022/09/10 05:16:22;;;;;;;;;;;;;;;11.28;55.95;101177.31;5023657;28;20416;-78
2022/09/10 05:18:49;;;;;;;;;;;;;;;11.43;55.71;101165.41;5043944;28;19939;-78
2022/09/10 05:21:17;;;;;;;;;;;;;;;11.54;55.98;101171.75;5041577;28;19931;-80
2022/09/10 05:23:44;;;;;;;;;;;;;;;11.68;55.45;101164.19;5018939;28;19971;-80
2022/09/10 05:26:11;;;;;;;;;;;;;;;11.79;55.52;101165.28;5044008;28;19931;-79
2022/09/10 05:28:38;;;;;;;;;;;;;;;11.89;55.25;101168.97;5023998;28;20024;-80
2022/09/10 05:31:08;;;;;;;;;;;;;;;11.98;55.47;101161.31;5035050;28;19978;-80
2022/09/10 05:33:39;;;;;;;;;;;;;;;12.07;54.99;101166.69;5025898;28;20312;-78
2022/09/10 05:36:09;;;;;;;;;;;;;;;12.17;55.08;101162.47;5044587;28;19924;-79
2022/09/10 05:38:39;;;;;;;;;;;;;;;12.27;54.72;101171.41;5063828;28;20015;-77
2022/09/10 05:41:10;;;;;;;;;;;;;;;12.32;54.76;101168.84;5050817;28;19924;-77
2022/09/10 05:43:41;;;;;;;;;;;;;;;12.38;54.74;101172.44;5056274;28;19924;-78
2022/09/10 05:46:09;;;;;;;;;;;;;;;12.44;54.60;101174.31;5061771;28;20408;-78
2022/09/10 05:48:39;;;;;;;;;;;;;;;12.52;54.54;101169.16;5058391;28;19947;-79
2022/09/10 05:51:09;;;;;;;;;;;;;;;12.56;54.65;101164.03;5054692;28;20019;-80
2022/09/10 05:53:37;;;;;;;;;;;;;;;12.59;54.53;101171.94;5053687;28;19931;-78
2022/09/10 05:56:06;;;;;;;;;;;;;;;12.63;54.37;101165.88;5045274;28;19951;-79
2022/09/10 05:58:34;;;;;;;;;;;;;;;12.65;54.46;101166.78;5052727;28;19929;-81
2022/09/10 06:01:01;;;;;;;;;;;;;;;12.69;54.37;101167.69;5025526;28;19960;-79
2022/09/10 06:03:30;;;;;;;;;;;;;;;12.70;54.16;101164.22;5026722;28;19955;-78
2022/09/10 06:06:00;;;;;;;;;;;;;;;12.63;54.13;101168.50;5041573;28;19925;-76
2022/09/10 06:08:31;;;;;;;;;;;;;;;12.65;54.30;101169.41;5040660;28;19974;-77
2022/09/10 06:11:04;;;;;;;;;;;;;;;12.73;53.81;101169.50;5039916;28;20024;-77
2022/09/10 06:13:41;;;;;;;;;;;;;;;12.76;53.72;101160.84;5034338;28;19963;-78
2022/09/10 06:16:08;;;;;;;;;;;;;;;12.85;53.39;101163.59;5050003;28;20031;-78
2022/09/10 06:18:37;;;;;;;;;;;;;;;12.91;53.02;101158.44;5053181;28;20343;-78
2022/09/10 06:21:09;;;;;;;;;;;;;;;12.93;52.98;101164.59;5036407;28;20303;-78
2022/09/10 06:23:40;;;;;;;;;;;;;;;13.02;52.66;101163.84;5033682;28;20355;-77
2022/09/10 06:26:09;;;;;;;;;;;;;;;13.09;52.39;101163.03;5040028;28;20388;-78
2022/09/10 06:28:36;;;;;;;;;;;;;;;13.13;52.35;101159.59;5035837;28;19924;-77
2022/09/10 06:31:05;;;;;;;;;;;;;;;13.15;51.90;101160.50;5052287;28;19928;-77
2022/09/10 06:33:35;;;;;;;;;;;;;;;13.11;51.83;101161.34;5036607;28;19934;-76
2022/09/10 06:36:04;;;;;;;;;;;;;;;13.09;51.14;101163.03;5052158;28;19930;-78
2022/09/10 06:38:32;;;;;;;;;;;;;;;13.21;50.90;101159.72;5036224;28;20388;-78
2022/09/10 06:41:03;;;;;;;;;;;;;;;13.16;50.54;101164.88;5052225;28;20374;-80
2022/09/10 06:43:38;;;;;;;;;;;;;;;13.11;50.14;101135.09;5050954;28;19924;-78
2022/09/10 06:46:13;;;;;;;;;;;;;;;13.35;50.15;101157.31;5043904;28;20384;-78
2022/09/10 06:49:09;;;;;;;;;;;;;;;13.42;49.72;101156.50;5053967;28;20326;-80
2022/09/10 06:51:38;;;;;;;;;;;;;;;13.56;49.42;101161.94;5016237;28;19925;-79
2022/09/10 06:54:07;;;;;;;;;;;;;;;13.67;49.36;101163.81;5016668;28;19925;-77
2022/09/10 06:56:34;;;;;;;;;;;;;;;13.64;49.38;101162.91;5027269;28;20278;-79
2022/09/10 06:59:03;;;;;;;;;;;;;;;13.74;49.12;101162.13;5034247;28;19925;-80
2022/09/10 07:01:42;;;;;;;;;;;;;;;13.83;48.78;101158.72;5022478;28;19924;-77
2022/09/10 07:04:09;;;;;;;;;;;;;;;13.84;49.22;101157.88;5046795;28;20400;-78
2022/09/10 07:06:37;;;;;;;;;;;;;;;13.81;48.90;101156.09;5026928;28;19971;-80
2022/09/10 07:09:08;;;;;;;;;;;;;;;13.78;48.56;101150.78;5042260;28;19970;-80
2022/09/10 07:11:43;;;;;;;;;;;;;;;13.97;48.42;101148.38;5025920;28;20297;-78
2022/09/10 07:14:12;;;;;;;;;;;;;;;14.13;48.25;101151.16;5015338;28;19925;-79
2022/09/10 07:16:44;;;;;;;;;;;;;;;14.29;47.80;101160.06;5010344;28;19932;-77
2022/09/10 07:19:13;;;;;;;;;;;;;;;14.17;47.51;101154.69;5023320;28;20394;-82
2022/09/10 07:21:44;;;;;;;;;;;;;;;14.14;47.68;101136.28;5003246;28;20373;-79
2022/09/10 07:24:13;;;;;;;;;;;;;;;14.13;46.75;101152.88;4989215;28;19948;-79
2022/09/10 07:26:50;;;;;;;;;;;;;;;14.05;46.74;101144.97;5005058;28;19925;-79
2022/09/10 07:29:17;;;;;;;;;;;;;;;14.10;46.44;101142.38;5025416;28;19926;-79
2022/09/10 07:31:46;;;;;;;;;;;;;;;14.08;46.47;101147.59;5017975;28;20003;-78
2022/09/10 07:34:19;;;;;;;;;;;;;;;14.08;46.52;101147.59;5034697;28;19925;-79
2022/09/10 07:36:46;;;;;;;;;;;;;;;13.96;46.27;101142.25;5016892;28;19976;-79
2022/09/10 07:39:14;;;;;;;;;;;;;;;13.60;46.97;101135.72;5043302;28;19925;-78
2022/09/10 07:41:41;;;;;;;;;;;;;;;13.75;47.11;101136.78;5012459;28;20382;-78
2022/09/10 07:44:11;;;;;;;;;;;;;;;13.90;46.76;101134.31;5011047;28;19961;-79
2022/09/10 07:46:41;;;;;;;;;;;;;;;14.02;46.47;101133.53;4995446;28;19926;-77
2022/09/10 07:49:12;;;;;;;;;;;;;;;14.13;46.34;101124.00;4996798;28;19925;-78
2022/09/10 07:51:42;;;;;;;;;;;;;;;14.13;45.22;101127.53;4996299;28;19948;-80
2022/09/10 07:54:09;;;;;;;;;;;;;;;14.05;45.40;101121.31;4997722;28;20267;-80
2022/09/10 07:56:41;;;;;;;;;;;;;;;14.07;45.62;101122.22;5012740;28;20028;-78
2022/09/10 07:59:12;;;;;;;;;;;;;;;14.24;45.43;101124.09;5012889;28;19925;-78
2022/09/10 08:01:54;;;;;;;;;;;;;;;14.30;45.30;101119.78;5012132;28;19925;-77
2022/09/10 08:04:23;;;;;;;;;;;;;;;14.31;45.18;101121.53;5012389;28;19981;-80
2022/09/10 08:06:51;;;;;;;;;;;;;;;14.24;45.20;101124.09;4996232;28;20023;-82
2022/09/10 08:09:19;;;;;;;;;;;;;;;14.19;45.47;101118.78;5011462;28;20028;-78
2022/09/10 08:11:52;;;;;;;;;;;;;;;14.27;45.01;101106.59;5008760;28;20297;-79
2022/09/10 08:14:21;;;;;;;;;;;;;;;14.32;45.00;101110.13;5024554;28;19925;-78
2022/09/10 08:16:51;;;;;;;;;;;;;;;14.26;44.71;101114.47;5043766;28;20036;-80
2022/09/10 08:19:19;;;;;;;;;;;;;;;14.23;44.86;101107.44;5059557;28;20308;-80
2022/09/10 08:21:47;;;;;;;;;;;;;;;14.33;44.99;101101.41;5045153;28;19947;-79
2022/09/10 08:24:21;;;;;;;;;;;;;;;14.47;44.94;101100.59;5046400;28;19928;-80
2022/09/10 08:26:50;;;;;;;;;;;;;;;14.47;44.35;101104.13;5037561;28;19931;-79
2022/09/10 08:29:24;;;;;;;;;;;;;;;14.49;44.26;101099.75;5025057;28;19928;-80
2022/09/10 08:31:52;;;;;;;;;;;;;;;14.45;44.36;101091.84;5044261;28;19925;-79
2022/09/10 08:34:25;;;;;;;;;;;;;;;14.41;44.92;101087.41;5060226;28;19990;-77
2022/09/10 08:37:02;;;;;;;;;;;;;;;14.58;44.39;101088.44;5044528;28;19956;-79
2022/09/10 08:39:32;;;;;;;;;;;;;;;14.74;43.71;101086.81;5045689;28;19925;-79
2022/09/10 08:42:00;;;;;;;;;;;;;;;14.72;42.50;101088.53;5043239;28;19925;-79
2022/09/10 08:44:27;;;;;;;;;;;;;;;14.65;42.79;101089.38;5044781;28;19931;-78
2022/09/10 08:46:58;;;;;;;;;;;;;;;14.62;42.71;101084.97;5026970;28;20316;-79
2022/09/10 08:49:44;;;;;;;;;;;;;;;14.68;42.50;101081.50;5039348;28;19925;-81
2022/09/10 08:52:36;;;;;;;;;;;;;;;14.76;42.43;101087.69;5019394;28;19932;-77
2022/09/10 08:55:16;;;;;;;;;;;;;;;14.77;42.59;101084.19;5048038;28;19924;-81
2022/09/10 08:57:49;;;;;;;;;;;;;;;15.00;42.65;101083.44;5057898;28;20019;-79
2022/09/10 09:00:18;;;;;;;;;;;;;;;15.06;42.11;101075.56;5038440;28;19929;-78
2022/09/10 09:02:52;;;;;;;;;;;;;;;14.97;42.29;101076.41;5043331;28;20396;-81
2022/09/10 09:05:27;;;;;;;;;;;;;;;14.81;42.69;101078.06;5035767;28;19932;-84
2022/09/10 09:07:57;;;;;;;;;;;;;;;14.97;42.31;101076.41;5035187;28;19931;-79
2022/09/10 09:10:31;;;;;;;;;;;;;;;15.18;41.87;101075.59;5038203;28;19931;-78
2022/09/10 09:13:14;;;;;;;;;;;;;;;15.26;41.98;101071.25;5017819;28;19925;-78
2022/09/10 09:15:50;;;;;;;;;;;;;;;15.42;41.61;101058.13;5034199;28;19975;-80
2022/09/10 09:18:21;;;;;;;;;;;;;;;15.48;41.39;101055.50;5017447;28;19925;-79
2022/09/10 09:20:53;;;;;;;;;;;;;;;15.40;41.23;101060.78;5017277;28;20356;-79
2022/09/10 09:23:25;;;;;;;;;;;;;;;15.42;40.87;101048.47;5017640;28;20012;-78
2022/09/10 09:26:05;;;;;;;;;;;;;;;15.51;41.12;101050.25;5017014;28;20266;-79
2022/09/10 09:28:35;;;;;;;;;;;;;;;15.62;40.89;101045.03;5020572;28;19931;-80
2022/09/10 09:31:06;;;;;;;;;;;;;;;15.73;40.94;101054.72;5054657;28;19925;-78
2022/09/10 09:33:37;;;;;;;;;;;;;;;15.89;40.63;101044.19;5053724;28;19928;-80
2022/09/10 09:36:06;;;;;;;;;;;;;;;15.92;40.61;101047.69;5053764;28;19925;-79
2022/09/10 09:38:42;;;;;;;;;;;;;;;15.93;40.42;101033.63;5049814;28;19925;-79
2022/09/10 09:41:19;;;;;;;;;;;;;;;15.85;40.38;101045.94;5041141;28;19960;-77
2022/09/10 09:44:02;;;;;;;;;;;;;;;15.85;40.41;101040.69;5057983;28;19928;-79
2022/09/10 09:46:31;;;;;;;;;;;;;;;15.73;40.27;101036.28;5045057;28;19925;-78
2022/09/10 09:49:01;;;;;;;;;;;;;;;15.72;40.65;101031.00;5046444;28;19931;-79
2022/09/10 09:51:34;;;;;;;;;;;;;;;15.81;40.71;101028.38;5068675;28;19924;-79
2022/09/10 09:54:06;;;;;;;;;;;;;;;15.86;40.91;101028.38;5054233;28;20375;-79
2022/09/10 09:56:55;;;;;;;;;;;;;;;15.90;40.76;101028.38;5054203;28;19925;-84
2022/09/10 09:59:26;;;;;;;;;;;;;;;16.01;40.63;101030.13;5054260;28;19970;-80
2022/09/10 10:01:54;;;;;;;;;;;;;;;15.99;40.26;101021.34;5054290;28;19979;-79
2022/09/10 10:04:23;;;;;;;;;;;;;;;15.76;40.63;101019.59;5054122;28;19925;-80
2022/09/10 10:06:54;;;;;;;;;;;;;;;15.64;40.95;101025.69;5054046;28;19967;-79
2022/09/10 10:09:22;;;;;;;;;;;;;;;15.53;40.87;101014.25;5054225;28;19956;-79
2022/09/10 10:11:51;;;;;;;;;;;;;;;15.43;40.78;101021.28;5053572;28;19924;-79
2022/09/10 10:14:19;;;;;;;;;;;;;;;15.22;41.56;101019.47;5053327;28;19925;-80
2022/09/10 10:16:47;;;;;;;;;;;;;;;15.24;41.12;101017.72;5053208;28;20015;-79
2022/09/10 10:19:30;;;;;;;;;;;;;;;15.32;40.73;101015.13;5033553;28;19925;-79
2022/09/10 10:22:17;;;;;;;;;;;;;;;15.42;40.70;101005.47;5033655;28;20024;-81
2022/09/10 10:24:45;;;;;;;;;;;;;;;15.55;40.75;101008.13;5033695;28;20103;-77
2022/09/10 10:27:29;;;;;;;;;;;;;;;15.66;40.48;101009.88;5016019;28;20019;-79
2022/09/10 10:30:11;;;;;;;;;;;;;;;15.74;40.27;101002.91;5033510;28;19925;-80
2022/09/10 10:32:41;;;;;;;;;;;;;;;15.81;40.21;100996.78;5033757;28;20328;-75
2022/09/10 10:35:28;;;;;;;;;;;;;;;15.93;40.08;100998.50;5033443;28;19999;-79
2022/09/10 10:38:16;;;;;;;;;;;;;;;15.97;40.21;100993.22;5038164;28;19924;-78
2022/09/10 10:40:52;;;;;;;;;;;;;;;16.08;40.16;100995.84;5041937;28;19925;-79
2022/09/10 10:43:26;;;;;;;;;;;;;;;16.11;40.07;100990.59;5043682;28;19925;-80
2022/09/10 10:45:56;;;;;;;;;;;;;;;16.01;39.23;100980.06;5041576;28;20032;-77
2022/09/10 10:48:33;;;;;;;;;;;;;;;15.78;38.99;100975.69;5043720;28;19931;-80
2022/09/10 10:51:13;;;;;;;;;;;;;;;15.67;39.17;100972.16;5041317;28;19971;-80
2022/09/10 10:54:01;;;;;;;;;;;;;;;15.81;39.35;100977.44;5041453;28;19925;-79
2022/09/10 10:56:28;;;;;;;;;;;;;;;16.00;39.40;100968.63;5046511;28;19924;-80
2022/09/10 10:59:26;;;;;;;;;;;;;;;16.16;38.92;100969.50;5051686;28;19924;-77
2022/09/10 11:02:12;;;;;;;;;;;;;;;16.21;39.18;100956.31;4979796;28;20300;-78
2022/09/10 11:04:47;;;;;;;;;;;;;;;16.22;39.04;100955.41;5029379;28;19978;-78
2022/09/10 11:07:17;;;;;;;;;;;;;;;16.19;38.75;100945.75;5053308;28;20027;-78
2022/09/10 11:09:44;;;;;;;;;;;;;;;16.14;38.89;100942.25;5048952;28;19967;-77
2022/09/10 11:12:15;;;;;;;;;;;;;;;16.14;38.87;100937.88;5051675;28;20024;-78
2022/09/10 11:14:56;;;;;;;;;;;;;;;16.14;38.70;100929.09;5052551;28;19925;-78
2022/09/10 11:17:46;;;;;;;;;;;;;;;16.18;38.45;100930.84;5052852;28;19932;-78
2022/09/10 11:20:22;;;;;;;;;;;;;;;16.21;38.46;100933.44;5052938;28;20023;-77
2022/09/10 11:23:14;;;;;;;;;;;;;;;16.18;38.31;100936.97;5052593;28;20403;-75
2022/09/10 11:26:07;;;;;;;;;;;;;;;16.14;38.01;100926.44;5052972;28;19924;-80
2022/09/10 11:28:46;;;;;;;;;;;;;;;16.02;38.18;100926.47;5047875;28;20377;-77
2022/09/10 11:31:20;;;;;;;;;;;;;;;16.02;38.18;100929.97;5051389;28;19924;-79
2022/09/10 11:33:53;;;;;;;;;;;;;;;16.13;38.25;100925.59;5051309;28;19924;-77
2022/09/10 11:36:31;;;;;;;;;;;;;;;16.24;38.06;100924.66;5047282;28;19925;-78
2022/09/10 11:39:13;;;;;;;;;;;;;;;16.24;38.06;100916.75;5041572;28;19966;-78
2022/09/10 11:41:41;;;;;;;;;;;;;;;16.29;38.10;100913.22;5055518;28;19968;-78
2022/09/10 11:44:14;;;;;;;;;;;;;;;16.29;38.02;100922.91;5043658;28;19925;-78
2022/09/10 11:46:50;;;;;;;;;;;;;;;16.25;37.94;100906.19;5051952;28;20027;-78
2022/09/10 11:49:21;;;;;;;;;;;;;;;16.26;38.10;100900.06;5051503;28;20305;-79
2022/09/10 11:51:49;;;;;;;;;;;;;;;16.32;37.84;100905.28;5036308;28;20320;-79
2022/09/10 11:54:17;;;;;;;;;;;;;;;16.31;37.96;100907.94;5031738;28;19929;-77
2022/09/10 11:56:58;;;;;;;;;;;;;;;16.27;37.57;100904.44;5031587;28;20024;-77
2022/09/10 11:59:37;;;;;;;;;;;;;;;16.21;37.81;100898.31;5044766;28;19928;-77
2022/09/10 12:02:26;;;;;;;;;;;;;;;16.23;37.76;100896.56;5058456;28;20039;-76
2022/09/10 12:05:05;;;;;;;;;;;;;;;16.12;37.35;100896.59;5048550;28;19925;-79
2022/09/10 12:07:36;;;;;;;;;;;;;;;16.10;37.63;100893.94;5040575;28;19929;-78
2022/09/10 12:10:30;;;;;;;;;;;;;;;16.03;37.60;100888.72;5041043;28;19960;-77
2022/09/10 12:12:58;;;;;;;;;;;;;;;16.04;37.60;100875.50;5041069;28;19959;-76
2022/09/10 12:15:29;;;;;;;;;;;;;;;15.99;37.33;100873.78;5041269;28;19925;-77
2022/09/10 12:18:00;;;;;;;;;;;;;;;15.86;37.51;100872.94;5055449;28;19932;-76
2022/09/10 12:20:32;;;;;;;;;;;;;;;15.92;37.54;100881.69;5056491;28;19951;-76
2022/09/10 12:22:59;;;;;;;;;;;;;;;16.08;37.61;100874.63;5058457;28;19928;-76
2022/09/10 12:25:30;;;;;;;;;;;;;;;16.11;37.51;100872.00;5068347;28;19924;-77
2022/09/10 12:28:02;;;;;;;;;;;;;;;16.09;37.62;100873.75;5067799;28;20015;-77
2022/09/10 12:30:32;;;;;;;;;;;;;;;16.09;37.69;100865.84;5045468;28;19982;-77
2022/09/10 12:33:01;;;;;;;;;;;;;;;16.10;37.90;100867.59;5035568;28;20527;-77
2022/09/10 12:35:34;;;;;;;;;;;;;;;16.07;37.52;100858.84;5036103;28;19979;-77
2022/09/10 12:38:21;;;;;;;;;;;;;;;15.94;37.75;100858.88;5035201;28;20016;-77
2022/09/10 12:40:48;;;;;;;;;;;;;;;15.92;37.77;100849.22;5039020;28;19925;-75
2022/09/10 12:43:42;;;;;;;;;;;;;;;15.93;38.09;100851.81;5055376;28;19931;-77
2022/09/10 12:46:13;;;;;;;;;;;;;;;15.91;37.71;100853.59;5052192;28;19930;-77
2022/09/10 12:48:43;;;;;;;;;;;;;;;15.85;37.53;100852.72;5055360;28;19971;-78
2022/09/10 12:51:20;;;;;;;;;;;;;;;15.79;37.66;100839.56;5054953;28;19929;-77
2022/09/10 12:53:56;;;;;;;;;;;;;;;15.77;37.66;100851.00;5055084;28;19932;-77
2022/09/10 12:56:42;;;;;;;;;;;;;;;15.81;38.05;100845.72;5055217;28;19950;-77
2022/09/10 12:59:22;;;;;;;;;;;;;;;15.83;38.42;100831.69;5054851;28;19924;-77
2022/09/10 13:01:50;;;;;;;;;;;;;;;15.85;37.94;100827.28;5055233;28;20019;-76
2022/09/10 13:04:18;;;;;;;;;;;;;;;15.87;38.11;100820.22;5054986;28;19978;-77